PWSweather.com
Personal Weather Stations
Station Observations
SHAHALMS1
Eftra, Falkenberg, HA

EftraFalkenberg, HA

Lat: 56.85, Lon: 12.65

Elevation: 140

Station Type:

http://hem.passagen.se/risarp101

High Low Average
Temperature 56.3°F13.5°C 40.5°F4.7°C 52.0°F11.1°C
Dew Point 52.9°F11.6°C 33.8°F1.0°C 44.4°F6.9°C
Winds 7.5 mph 12.1 kmh Calm Calm 3.0 mph SW4.8 kmh SW
Wind Gusts 19.7 mph31.7 kmh -- 7.0 mph11.3 kmh
Humidity 89% 58% 76%
Pressure 29.95 in1014.2 mb 29.74 in1007.1 mb -
Precipitation 0.00 in0.0 mm - -
Hour Temp Dew Point Humidity Winds Wind Gusts Pressure Precip Precip Rate Daily Precip Total
12:00 AM 55.9°F13.3°C 52.4°F11.3°C 88% 2.3 mph W3.7 kmh W 6.8 mph10.9 kmh 29.77 in1008.1 mb 0.00 in0.0 mm 0.00 in0.0 mm 0.00 in0.0 mm
12:15 AM 56.1°F13.4°C 52.6°F11.4°C 88% 0.8 mph WSW1.3 kmh WSW 6.1 mph9.8 kmh 29.77 in1008.1 mb 0.00 in0.0 mm 0.00 in0.0 mm 0.00 in0.0 mm
12:30 AM 55.9°F13.3°C 52.4°F11.3°C 88% Calm Calm -- 29.77 in1008.1 mb 0.00 in0.0 mm 0.00 in0.0 mm 0.00 in0.0 mm
12:45 AM 56.1°F13.4°C 52.6°F11.4°C 88% Calm Calm -- 29.77 in1008.1 mb 0.00 in0.0 mm 0.00 in0.0 mm 0.00 in0.0 mm
01:00 AM 56.1°F13.4°C 52.9°F11.6°C 89% Calm Calm -- 29.77 in1008.1 mb 0.00 in0.0 mm 0.00 in0.0 mm 0.00 in0.0 mm
01:15 AM 56.1°F13.4°C 52.9°F11.6°C 89% 0.1 mph W0.2 kmh W 3.2 mph5.1 kmh 29.77 in1008.1 mb 0.00 in0.0 mm 0.00 in0.0 mm 0.00 in0.0 mm
01:30 AM 56.1°F13.4°C 52.9°F11.6°C 89% Calm Calm -- 29.77 in1008.1 mb 0.00 in0.0 mm 0.00 in0.0 mm 0.00 in0.0 mm
01:45 AM 55.9°F13.3°C 52.7°F11.5°C 89% 0.3 mph W0.5 kmh W 5.0 mph8.0 kmh 29.77 in1008.1 mb 0.00 in0.0 mm 0.00 in0.0 mm 0.00 in0.0 mm
02:00 AM 55.9°F13.3°C 52.7°F11.5°C 89% Calm Calm -- 29.74 in1007.1 mb 0.00 in0.0 mm 0.00 in0.0 mm 0.00 in0.0 mm
02:15 AM 55.9°F13.3°C 52.7°F11.5°C 89% 0.9 mph NNW1.4 kmh NNW 6.1 mph9.8 kmh 29.77 in1008.1 mb 0.00 in0.0 mm 0.00 in0.0 mm 0.00 in0.0 mm
02:30 AM 55.8°F13.2°C 52.6°F11.4°C 89% 1.1 mph W1.8 kmh W 5.4 mph8.7 kmh 29.77 in1008.1 mb 0.00 in0.0 mm 0.00 in0.0 mm 0.00 in0.0 mm
02:45 AM 55.6°F13.1°C 52.4°F11.3°C 89% 1.4 mph NW2.3 kmh NW 4.7 mph7.6 kmh 29.74 in1007.1 mb 0.00 in0.0 mm 0.00 in0.0 mm 0.00 in0.0 mm
03:00 AM 55.6°F13.1°C 52.4°F11.3°C 89% 0.7 mph NW1.1 kmh NW 4.3 mph6.9 kmh 29.77 in1008.1 mb 0.00 in0.0 mm 0.00 in0.0 mm 0.00 in0.0 mm
03:15 AM 55.6°F13.1°C 52.4°F11.3°C 89% 1.3 mph W2.1 kmh W 5.7 mph9.2 kmh 29.74 in1007.1 mb 0.00 in0.0 mm 0.00 in0.0 mm 0.00 in0.0 mm
03:30 AM 55.4°F13.0°C 52.2°F11.2°C 89% 2.0 mph W3.2 kmh W 6.4 mph10.3 kmh 29.74 in1007.1 mb 0.00 in0.0 mm 0.00 in0.0 mm 0.00 in0.0 mm
03:45 AM 55.4°F13.0°C 52.2°F11.2°C 89% 3.1 mph W5.0 kmh W 7.5 mph12.1 kmh 29.74 in1007.1 mb 0.00 in0.0 mm 0.00 in0.0 mm 0.00 in0.0 mm
04:00 AM 55.2°F12.9°C 52.0°F11.1°C 89% 1.8 mph WNW2.9 kmh WNW 6.8 mph10.9 kmh 29.77 in1008.1 mb 0.00 in0.0 mm 0.00 in0.0 mm 0.00 in0.0 mm
04:15 AM 55.0°F12.8°C 51.9°F11.1°C 89% 1.5 mph WNW2.4 kmh WNW 5.4 mph8.7 kmh 29.77 in1008.1 mb 0.00 in0.0 mm 0.00 in0.0 mm 0.00 in0.0 mm
04:30 AM 55.0°F12.8°C 51.9°F11.1°C 89% 2.0 mph NW3.2 kmh NW 6.4 mph10.3 kmh 29.77 in1008.1 mb 0.00 in0.0 mm 0.00 in0.0 mm 0.00 in0.0 mm
04:45 AM 54.9°F12.7°C 51.7°F10.9°C 89% 3.2 mph NW5.1 kmh NW 6.4 mph10.3 kmh 29.77 in1008.1 mb 0.00 in0.0 mm 0.00 in0.0 mm 0.00 in0.0 mm
05:00 AM 54.7°F12.6°C 51.5°F10.8°C 89% 3.4 mph NW5.5 kmh NW 6.4 mph10.3 kmh 29.77 in1008.1 mb 0.00 in0.0 mm 0.00 in0.0 mm 0.00 in0.0 mm
05:15 AM 54.7°F12.6°C 51.5°F10.8°C 89% 3.8 mph NW6.1 kmh NW 7.5 mph12.1 kmh 29.77 in1008.1 mb 0.00 in0.0 mm 0.00 in0.0 mm 0.00 in0.0 mm
05:30 AM 54.5°F12.5°C 51.0°F10.6°C 88% 2.5 mph NW4.0 kmh NW 5.7 mph9.2 kmh 29.77 in1008.1 mb 0.00 in0.0 mm 0.00 in0.0 mm 0.00 in0.0 mm
05:45 AM 54.3°F12.4°C 50.8°F10.4°C 88% 1.6 mph NW2.6 kmh NW 4.7 mph7.6 kmh 29.77 in1008.1 mb 0.00 in0.0 mm 0.00 in0.0 mm 0.00 in0.0 mm
06:00 AM 54.3°F12.4°C 50.8°F10.4°C 88% 0.8 mph WNW1.3 kmh WNW 4.3 mph6.9 kmh 29.77 in1008.1 mb 0.00 in0.0 mm 0.00 in0.0 mm 0.00 in0.0 mm
06:15 AM 54.0°F12.2°C 50.5°F10.3°C 88% 1.0 mph W1.6 kmh W 4.3 mph6.9 kmh 29.77 in1008.1 mb 0.00 in0.0 mm 0.00 in0.0 mm 0.00 in0.0 mm
06:30 AM 54.0°F12.2°C 50.5°F10.3°C 88% 1.9 mph W3.1 kmh W 5.7 mph9.2 kmh 29.80 in1009.1 mb 0.00 in0.0 mm 0.00 in0.0 mm 0.00 in0.0 mm
06:45 AM 54.0°F12.2°C 50.5°F10.3°C 88% 2.9 mph W4.7 kmh W 11.5 mph18.5 kmh 29.80 in1009.1 mb 0.00 in0.0 mm 0.00 in0.0 mm 0.00 in0.0 mm
07:00 AM 53.8°F12.1°C 50.3°F10.2°C 88% 2.5 mph WNW4.0 kmh WNW 8.9 mph14.3 kmh 29.83 in1010.2 mb 0.00 in0.0 mm 0.00 in0.0 mm 0.00 in0.0 mm
07:15 AM 53.6°F12.0°C 50.1°F10.1°C 88% 1.6 mph WNW2.6 kmh WNW 5.0 mph8.0 kmh 29.80 in1009.1 mb 0.00 in0.0 mm 0.00 in0.0 mm 0.00 in0.0 mm
07:30 AM 53.2°F11.8°C 49.8°F9.9°C 88% 2.7 mph W4.3 kmh W 7.9 mph12.7 kmh 29.80 in1009.1 mb 0.00 in0.0 mm 0.00 in0.0 mm 0.00 in0.0 mm
07:45 AM 52.9°F11.6°C 49.1°F9.5°C 87% 1.0 mph W1.6 kmh W 6.1 mph9.8 kmh 29.80 in1009.1 mb 0.00 in0.0 mm 0.00 in0.0 mm 0.00 in0.0 mm
08:00 AM 52.7°F11.5°C 48.9°F9.4°C 87% 1.0 mph W1.6 kmh W 11.8 mph19.0 kmh 29.80 in1009.1 mb 0.00 in0.0 mm 0.00 in0.0 mm 0.00 in0.0 mm
08:15 AM 52.5°F11.4°C 48.8°F9.3°C 87% 0.1 mph W0.2 kmh W 1.8 mph2.9 kmh 29.80 in1009.1 mb 0.00 in0.0 mm 0.00 in0.0 mm 0.00 in0.0 mm
08:30 AM 52.7°F11.5°C 49.2°F9.6°C 88% 0.6 mph NW1.0 kmh NW 5.0 mph8.0 kmh 29.80 in1009.1 mb 0.00 in0.0 mm 0.00 in0.0 mm 0.00 in0.0 mm
08:45 AM 53.1°F11.7°C 49.3°F9.6°C 87% 1.0 mph NW1.6 kmh NW 5.0 mph8.0 kmh 29.80 in1009.1 mb 0.00 in0.0 mm 0.00 in0.0 mm 0.00 in0.0 mm
09:00 AM 53.2°F11.8°C 49.2°F9.6°C 86% 3.7 mph NW6.0 kmh NW 8.9 mph14.3 kmh 29.83 in1010.2 mb 0.00 in0.0 mm 0.00 in0.0 mm 0.00 in0.0 mm
09:15 AM 53.6°F12.0°C 49.2°F9.6°C 85% 4.6 mph NW7.4 kmh NW 9.3 mph15.0 kmh 29.83 in1010.2 mb 0.00 in0.0 mm 0.00 in0.0 mm 0.00 in0.0 mm
09:30 AM 54.0°F12.2°C 48.6°F9.2°C 82% 5.3 mph NW8.5 kmh NW 12.2 mph19.6 kmh 29.83 in1010.2 mb 0.00 in0.0 mm 0.00 in0.0 mm 0.00 in0.0 mm
09:45 AM 54.1°F12.3°C 47.8°F8.8°C 79% 6.3 mph NNW10.1 kmh NNW 12.9 mph20.8 kmh 29.83 in1010.2 mb 0.00 in0.0 mm 0.00 in0.0 mm 0.00 in0.0 mm
10:00 AM 54.5°F12.5°C 47.4°F8.6°C 77% 7.5 mph N12.1 kmh N 19.7 mph31.7 kmh 29.83 in1010.2 mb 0.00 in0.0 mm 0.00 in0.0 mm 0.00 in0.0 mm
10:15 AM 54.9°F12.7°C 46.7°F8.2°C 74% 6.0 mph NNW9.7 kmh NNW 13.6 mph21.9 kmh 29.83 in1010.2 mb 0.00 in0.0 mm 0.00 in0.0 mm 0.00 in0.0 mm
10:30 AM 55.0°F12.8°C 45.8°F7.7°C 71% 6.4 mph NNW10.3 kmh NNW 15.4 mph24.8 kmh 29.86 in1011.2 mb 0.00 in0.0 mm 0.00 in0.0 mm 0.00 in0.0 mm
10:45 AM 55.4°F13.0°C 45.4°F7.4°C 69% 5.4 mph NW8.7 kmh NW 9.3 mph15.0 kmh 29.86 in1011.2 mb 0.00 in0.0 mm 0.00 in0.0 mm 0.00 in0.0 mm
11:00 AM 55.4°F13.0°C 45.0°F7.2°C 68% 5.7 mph NW9.2 kmh NW 12.9 mph20.8 kmh 29.86 in1011.2 mb 0.00 in0.0 mm 0.00 in0.0 mm 0.00 in0.0 mm
11:15 AM 55.4°F13.0°C 44.2°F6.8°C 66% 6.8 mph NNW10.9 kmh NNW 16.8 mph27.0 kmh 29.86 in1011.2 mb 0.00 in0.0 mm 0.00 in0.0 mm 0.00 in0.0 mm
11:30 AM 55.8°F13.2°C 44.2°F6.8°C 65% 4.5 mph NW7.2 kmh NW 10.4 mph16.7 kmh 29.86 in1011.2 mb 0.00 in0.0 mm 0.00 in0.0 mm 0.00 in0.0 mm
11:45 AM 55.8°F13.2°C 43.3°F6.3°C 63% 5.8 mph NNW9.3 kmh NNW 12.5 mph20.1 kmh 29.86 in1011.2 mb 0.00 in0.0 mm 0.00 in0.0 mm 0.00 in0.0 mm
12:00 PM 55.9°F13.3°C 43.1°F6.2°C 62% 4.6 mph NNW7.4 kmh NNW 11.5 mph18.5 kmh 29.86 in1011.2 mb 0.00 in0.0 mm 0.00 in0.0 mm 0.00 in0.0 mm
12:15 PM 55.9°F13.3°C 42.2°F5.7°C 60% 6.2 mph NW10.0 kmh NW 11.5 mph18.5 kmh 29.86 in1011.2 mb 0.00 in0.0 mm 0.00 in0.0 mm 0.00 in0.0 mm
12:30 PM 55.9°F13.3°C 41.4°F5.2°C 58% 6.1 mph NW9.8 kmh NW 10.4 mph16.7 kmh 29.86 in1011.2 mb 0.00 in0.0 mm 0.00 in0.0 mm 0.00 in0.0 mm
12:45 PM 56.1°F13.4°C 42.0°F5.6°C 59% 5.0 mph NW8.0 kmh NW 11.5 mph18.5 kmh 29.86 in1011.2 mb 0.00 in0.0 mm 0.00 in0.0 mm 0.00 in0.0 mm
01:00 PM 56.1°F13.4°C 41.5°F5.3°C 58% 4.9 mph NW7.9 kmh NW 12.2 mph19.6 kmh 29.86 in1011.2 mb 0.00 in0.0 mm 0.00 in0.0 mm 0.00 in0.0 mm
01:15 PM 56.3°F13.5°C 42.1°F5.6°C 59% 5.1 mph NW8.2 kmh NW 17.5 mph28.2 kmh 29.86 in1011.2 mb 0.00 in0.0 mm 0.00 in0.0 mm 0.00 in0.0 mm
01:30 PM 56.1°F13.4°C 42.0°F5.6°C 59% 6.4 mph NW10.3 kmh NW 12.9 mph20.8 kmh 29.89 in1012.2 mb 0.00 in0.0 mm 0.00 in0.0 mm 0.00 in0.0 mm
01:46 PM 55.9°F13.3°C 42.2°F5.7°C 60% 5.8 mph WNW9.3 kmh WNW 12.9 mph20.8 kmh 29.86 in1011.2 mb 0.00 in0.0 mm 0.00 in0.0 mm 0.00 in0.0 mm
02:00 PM 55.6°F13.1°C 41.9°F5.5°C 60% 5.8 mph NW9.3 kmh NW 11.8 mph19.0 kmh 29.83 in1010.2 mb 0.00 in0.0 mm 0.00 in0.0 mm 0.00 in0.0 mm
02:15 PM 55.2°F12.9°C 41.1°F5.1°C 59% 6.3 mph WNW10.1 kmh WNW 17.2 mph27.7 kmh 29.83 in1010.2 mb 0.00 in0.0 mm 0.00 in0.0 mm 0.00 in0.0 mm
02:30 PM 55.0°F12.8°C 41.0°F5.0°C 59% 6.3 mph WNW10.1 kmh WNW 16.5 mph26.6 kmh 29.83 in1010.2 mb 0.00 in0.0 mm 0.00 in0.0 mm 0.00 in0.0 mm
02:45 PM 54.9°F12.7°C 40.8°F4.9°C 59% 5.6 mph NW9.0 kmh NW 13.6 mph21.9 kmh 29.86 in1011.2 mb 0.00 in0.0 mm 0.00 in0.0 mm 0.00 in0.0 mm
03:00 PM 54.5°F12.5°C 40.5°F4.7°C 59% 4.9 mph WNW7.9 kmh WNW 10.4 mph16.7 kmh 29.86 in1011.2 mb 0.00 in0.0 mm 0.00 in0.0 mm 0.00 in0.0 mm
03:15 PM 54.1°F12.3°C 40.1°F4.5°C 59% 4.7 mph NW7.6 kmh NW 9.7 mph15.6 kmh 29.86 in1011.2 mb 0.00 in0.0 mm 0.00 in0.0 mm 0.00 in0.0 mm
03:30 PM 53.8°F12.1°C 39.3°F4.1°C 58% 6.0 mph NW9.7 kmh NW 12.9 mph20.8 kmh 29.86 in1011.2 mb 0.00 in0.0 mm 0.00 in0.0 mm 0.00 in0.0 mm
03:45 PM 53.2°F11.8°C 39.3°F4.1°C 59% 5.4 mph NW8.7 kmh NW 11.5 mph18.5 kmh 29.86 in1011.2 mb 0.00 in0.0 mm 0.00 in0.0 mm 0.00 in0.0 mm
04:00 PM 52.9°F11.6°C 39.8°F4.3°C 61% 4.6 mph NW7.4 kmh NW 9.3 mph15.0 kmh 29.86 in1011.2 mb 0.00 in0.0 mm 0.00 in0.0 mm 0.00 in0.0 mm
04:15 PM 52.5°F11.4°C 39.5°F4.2°C 61% 3.5 mph NW5.6 kmh NW 8.6 mph13.8 kmh 29.89 in1012.2 mb 0.00 in0.0 mm 0.00 in0.0 mm 0.00 in0.0 mm
04:30 PM 52.2°F11.2°C 39.5°F4.2°C 62% 4.3 mph NW6.9 kmh NW 11.8 mph19.0 kmh 29.86 in1011.2 mb 0.00 in0.0 mm 0.00 in0.0 mm 0.00 in0.0 mm
04:45 PM 51.8°F11.0°C 39.6°F4.2°C 63% 3.7 mph WNW6.0 kmh WNW 10.0 mph16.1 kmh 29.89 in1012.2 mb 0.00 in0.0 mm 0.00 in0.0 mm 0.00 in0.0 mm
05:00 PM 51.3°F10.7°C 39.1°F3.9°C 63% 3.2 mph W5.1 kmh W 9.3 mph15.0 kmh 29.89 in1012.2 mb 0.00 in0.0 mm 0.00 in0.0 mm 0.00 in0.0 mm
05:15 PM 50.5°F10.3°C 38.8°F3.8°C 64% 4.9 mph W7.9 kmh W 11.5 mph18.5 kmh 29.89 in1012.2 mb 0.00 in0.0 mm 0.00 in0.0 mm 0.00 in0.0 mm
05:30 PM 49.8°F9.9°C 38.5°F3.6°C 65% 3.8 mph W6.1 kmh W 10.4 mph16.7 kmh 29.89 in1012.2 mb 0.00 in0.0 mm 0.00 in0.0 mm 0.00 in0.0 mm
05:45 PM 49.1°F9.5°C 38.2°F3.4°C 66% 3.3 mph W5.3 kmh W 8.9 mph14.3 kmh 29.92 in1013.2 mb 0.00 in0.0 mm 0.00 in0.0 mm 0.00 in0.0 mm
06:00 PM 48.4°F9.1°C 37.9°F3.3°C 67% 2.1 mph W3.4 kmh W 5.7 mph9.2 kmh 29.92 in1013.2 mb 0.00 in0.0 mm 0.00 in0.0 mm 0.00 in0.0 mm
06:15 PM 47.8°F8.8°C 37.8°F3.2°C 68% 2.2 mph W3.5 kmh W 6.8 mph10.9 kmh 29.92 in1013.2 mb 0.00 in0.0 mm 0.00 in0.0 mm 0.00 in0.0 mm
06:30 PM 47.3°F8.5°C 37.6°F3.1°C 69% 0.5 mph W0.8 kmh W 4.3 mph6.9 kmh 29.92 in1013.2 mb 0.00 in0.0 mm 0.00 in0.0 mm 0.00 in0.0 mm
06:45 PM 47.1°F8.4°C 37.8°F3.2°C 70% 0.4 mph W0.6 kmh W 4.3 mph6.9 kmh 29.92 in1013.2 mb 0.00 in0.0 mm 0.00 in0.0 mm 0.00 in0.0 mm
07:00 PM 46.9°F8.3°C 38.0°F3.3°C 71% Calm Calm -- 29.92 in1013.2 mb 0.00 in0.0 mm 0.00 in0.0 mm 0.00 in0.0 mm
07:15 PM 46.6°F8.1°C 38.0°F3.3°C 72% Calm Calm -- 29.92 in1013.2 mb 0.00 in0.0 mm 0.00 in0.0 mm 0.00 in0.0 mm
07:30 PM 46.4°F8.0°C 37.9°F3.3°C 72% 0.5 mph WNW0.8 kmh WNW 3.2 mph5.1 kmh 29.92 in1013.2 mb 0.00 in0.0 mm 0.00 in0.0 mm 0.00 in0.0 mm
07:45 PM 46.0°F7.8°C 37.9°F3.3°C 73% Calm Calm -- 29.92 in1013.2 mb 0.00 in0.0 mm 0.00 in0.0 mm 0.00 in0.0 mm
08:00 PM 45.7°F7.6°C 37.5°F3.1°C 73% Calm Calm -- 29.92 in1013.2 mb 0.00 in0.0 mm 0.00 in0.0 mm 0.00 in0.0 mm
08:15 PM 45.5°F7.5°C 37.7°F3.2°C 74% 0.1 mph NW0.2 kmh NW 4.3 mph6.9 kmh 29.92 in1013.2 mb 0.00 in0.0 mm 0.00 in0.0 mm 0.00 in0.0 mm
08:30 PM 45.3°F7.4°C 37.9°F3.3°C 75% Calm Calm -- 29.92 in1013.2 mb 0.00 in0.0 mm 0.00 in0.0 mm 0.00 in0.0 mm
08:45 PM 45.1°F7.3°C 37.7°F3.2°C 75% Calm Calm -- 29.92 in1013.2 mb 0.00 in0.0 mm 0.00 in0.0 mm 0.00 in0.0 mm
09:00 PM 45.1°F7.3°C 37.7°F3.2°C 75% Calm Calm -- 29.92 in1013.2 mb 0.00 in0.0 mm 0.00 in0.0 mm 0.00 in0.0 mm
09:15 PM 44.4°F6.9°C 36.6°F2.6°C 74% Calm Calm -- 29.92 in1013.2 mb 0.00 in0.0 mm 0.00 in0.0 mm 0.00 in0.0 mm
09:30 PM 43.9°F6.6°C 36.1°F2.3°C 74% Calm Calm -- 29.92 in1013.2 mb 0.00 in0.0 mm 0.00 in0.0 mm 0.00 in0.0 mm
09:45 PM 43.7°F6.5°C 36.3°F2.4°C 75% Calm Calm 2.1 mph3.4 kmh 29.92 in1013.2 mb 0.00 in0.0 mm 0.00 in0.0 mm 0.00 in0.0 mm
10:00 PM 42.8°F6.0°C 35.4°F1.9°C 75% Calm Calm -- 29.95 in1014.2 mb 0.00 in0.0 mm 0.00 in0.0 mm 0.00 in0.0 mm
10:15 PM 42.6°F5.9°C 35.2°F1.8°C 75% 0.1 mph SE0.2 kmh SE 2.5 mph4.0 kmh 29.92 in1013.2 mb 0.00 in0.0 mm 0.00 in0.0 mm 0.00 in0.0 mm
10:30 PM 41.9°F5.5°C 34.6°F1.4°C 75% 0.4 mph SE0.6 kmh SE 5.4 mph8.7 kmh 29.92 in1013.2 mb 0.00 in0.0 mm 0.00 in0.0 mm 0.00 in0.0 mm
10:45 PM 41.5°F5.3°C 34.5°F1.4°C 76% Calm Calm -- 29.95 in1014.2 mb 0.00 in0.0 mm 0.00 in0.0 mm 0.00 in0.0 mm
11:00 PM 41.2°F5.1°C 34.2°F1.2°C 76% Calm Calm -- 29.92 in1013.2 mb 0.00 in0.0 mm 0.00 in0.0 mm 0.00 in0.0 mm
11:15 PM 40.8°F4.9°C 34.2°F1.2°C 77% Calm Calm -- 29.92 in1013.2 mb 0.00 in0.0 mm 0.00 in0.0 mm 0.00 in0.0 mm
11:30 PM 40.5°F4.7°C 33.8°F1.0°C 77% Calm Calm -- 29.92 in1013.2 mb 0.00 in0.0 mm 0.00 in0.0 mm 0.00 in0.0 mm
11:45 PM 40.5°F4.7°C 34.1°F1.2°C 78% Calm Calm -- 29.95 in1014.2 mb 0.00 in0.0 mm 0.00 in0.0 mm 0.00 in0.0 mm